Time;durP1;ratioP1;P1;durP2;ratioP2;P2;SDS_P1;SDS_P2;PMS_P1;PMS_P2;Temp;Humidity;BMP_temperature;BMP_pressure;BME280_temperature;BME280_humidity;BME280_pressure;Samples;Min_cycle;Max_cycle;Signal;HPM_P1;HPM_P2
2023/07/13 00:02:15;;;;;;;16.02;3.53;;;14.60;99.90;;;;;;5013876;28;20018;-79
2023/07/13 00:04:41;;;;;;;10.52;2.78;;;14.60;99.90;;;;;;5012789;28;20486;-78
2023/07/13 00:07:08;;;;;;;11.73;3.35;;;14.60;99.90;;;;;;5013847;28;20039;-79
2023/07/13 00:09:34;;;;;;;14.90;3.20;;;14.50;99.90;;;;;;5011977;28;20018;-79
2023/07/13 00:12:00;;;;;;;12.30;3.70;;;14.40;99.90;;;;;;5010572;28;20042;-78
2023/07/13 00:14:27;;;;;;;20.00;3.92;;;14.30;99.90;;;;;;5013511;28;20037;-80
2023/07/13 00:16:53;;;;;;;14.02;3.63;;;14.30;99.90;;;;;;5012406;28;20028;-78
2023/07/13 00:19:19;;;;;;;18.02;4.65;;;14.20;99.90;;;;;;5013310;28;20021;-79
2023/07/13 00:21:45;;;;;;;11.98;2.97;;;14.10;99.90;;;;;;5013666;28;20022;-78
2023/07/13 00:24:13;;;;;;;13.82;3.45;;;14.10;99.90;;;;;;5013997;28;20386;-79
2023/07/13 00:26:40;;;;;;;11.57;3.75;;;14.00;99.90;;;;;;5013534;28;20036;-78
2023/07/13 00:29:08;;;;;;;11.82;2.92;;;13.90;99.90;;;;;;5013569;28;20093;-79
2023/07/13 00:31:35;;;;;;;15.07;3.40;;;13.90;99.90;;;;;;5001596;22;20046;-86
2023/07/13 00:34:01;;;;;;;12.02;3.13;;;13.80;99.90;;;;;;4974694;28;20106;-85
2023/07/13 00:36:27;;;;;;;11.23;3.30;;;13.80;99.90;;;;;;4974621;28;20106;-85
2023/07/13 00:38:53;;;;;;;12.65;3.22;;;13.70;99.90;;;;;;4974457;28;20026;-85
2023/07/13 00:41:18;;;;;;;11.05;3.67;;;13.70;99.90;;;;;;4974407;28;20023;-85
2023/07/13 00:43:44;;;;;;;9.52;3.28;;;13.70;99.90;;;;;;4956764;28;20076;-85
2023/07/13 00:46:32;;;;;;;14.10;4.10;;;13.70;99.90;;;;;;4957048;28;20018;-84
2023/07/13 00:49:02;;;;;;;13.80;3.35;;;13.70;99.90;;;;;;4952203;28;20075;-84
2023/07/13 00:51:46;;;;;;;12.90;3.42;;;13.70;99.90;;;;;;4950428;28;20038;-84
2023/07/13 00:54:17;;;;;;;10.00;2.85;;;13.60;99.90;;;;;;4967678;28;20031;-85
2023/07/13 00:56:46;;;;;;;18.65;3.10;;;13.60;99.90;;;;;;4956739;28;20538;-84
2023/07/13 00:59:14;;;;;;;15.35;2.90;;;13.50;99.90;;;;;;4957041;28;20105;-85
2023/07/13 01:01:40;;;;;;;14.63;3.25;;;13.50;99.90;;;;;;4957020;28;20022;-84
2023/07/13 01:04:07;;;;;;;12.32;3.63;;;13.50;99.90;;;;;;4974053;28;20479;-85
2023/07/13 01:06:36;;;;;;;12.82;3.10;;;13.40;99.90;;;;;;4973026;28;20023;-85
2023/07/13 01:09:02;;;;;;;9.15;3.03;;;13.40;99.90;;;;;;4973684;28;20034;-84
2023/07/13 01:11:28;;;;;;;12.25;3.53;;;13.30;99.90;;;;;;4956507;28;20080;-84
2023/07/13 01:13:54;;;;;;;12.85;3.70;;;13.30;99.90;;;;;;4956719;28;20030;-84
2023/07/13 01:16:26;;;;;;;18.17;3.20;;;13.30;99.90;;;;;;4973760;28;20055;-84
2023/07/13 01:18:52;;;;;;;15.38;3.45;;;13.20;99.90;;;;;;4967994;28;20050;-85
2023/07/13 01:21:18;;;;;;;12.32;4.85;;;13.20;99.90;;;;;;4974038;28;20023;-86
2023/07/13 01:23:44;;;;;;;13.65;3.65;;;13.10;99.90;;;;;;4956337;28;20348;-85
2023/07/13 01:26:10;;;;;;;12.35;3.03;;;13.10;99.90;;;;;;4956693;28;20038;-85
2023/07/13 01:28:36;;;;;;;12.32;2.75;;;13.00;99.90;;;;;;4956561;28;20027;-86
2023/07/13 01:31:03;;;;;;;8.23;3.33;;;12.90;99.90;;;;;;4985706;23;20050;-79
2023/07/13 01:33:28;;;;;;;6.32;2.70;;;12.80;99.90;;;;;;4992078;28;20037;-79
2023/07/13 01:35:57;;;;;;;9.43;3.08;;;12.80;99.90;;;;;;4992764;28;20026;-78
2023/07/13 01:38:23;;;;;;;14.32;3.47;;;12.70;99.90;;;;;;5008066;28;20471;-78
2023/07/13 01:40:50;;;;;;;11.10;3.10;;;12.70;99.90;;;;;;4992919;28;20026;-78
2023/07/13 01:43:17;;;;;;;13.68;3.47;;;12.70;99.90;;;;;;4992704;28;20043;-79
2023/07/13 01:45:43;;;;;;;12.13;3.42;;;12.70;99.90;;;;;;4992423;28;20486;-79
2023/07/13 01:48:10;;;;;;;6.15;2.75;;;12.70;99.90;;;;;;4992886;28;20534;-78
2023/07/13 01:50:36;;;;;;;14.15;3.05;;;12.60;99.90;;;;;;4992805;28;20033;-79
2023/07/13 01:53:02;;;;;;;10.48;2.83;;;12.60;99.90;;;;;;4991902;28;20042;-79
2023/07/13 01:55:28;;;;;;;12.38;3.33;;;12.50;99.90;;;;;;4991009;28;20053;-79
2023/07/13 01:57:54;;;;;;;11.85;3.58;;;12.50;99.90;;;;;;4992864;28;20436;-79
2023/07/13 02:00:20;;;;;;;8.95;2.80;;;12.40;99.90;;;;;;4991305;28;20092;-79
2023/07/13 02:02:45;;;;;;;11.50;3.13;;;12.30;99.90;;;;;;4991773;28;20022;-79
2023/07/13 02:05:12;;;;;;;11.57;3.28;;;12.30;99.90;;;;;;4992508;28;20026;-79
2023/07/13 02:07:38;;;;;;;9.55;3.25;;;12.20;99.90;;;;;;4991985;28;20054;-79
2023/07/13 02:10:06;;;;;;;6.30;3.03;;;12.20;99.90;;;;;;4991054;28;20027;-78
2023/07/13 02:12:31;;;;;;;10.35;2.83;;;12.10;99.90;;;;;;4992584;28;20034;-79
2023/07/13 02:14:57;;;;;;;14.02;3.53;;;12.10;99.90;;;;;;4992062;28;20034;-79
2023/07/13 02:17:23;;;;;;;8.45;2.85;;;12.10;99.90;;;;;;4991786;28;20495;-79
2023/07/13 02:19:48;;;;;;;9.77;3.47;;;12.00;99.90;;;;;;4991939;28;20097;-78
2023/07/13 02:22:14;;;;;;;11.85;3.65;;;12.00;99.90;;;;;;4991903;28;20026;-79
2023/07/13 02:24:40;;;;;;;9.18;3.47;;;11.90;99.90;;;;;;4991971;28;20026;-79
2023/07/13 02:27:06;;;;;;;13.30;3.90;;;11.90;99.90;;;;;;4992026;28;20026;-79
2023/07/13 02:29:31;;;;;;;9.68;2.83;;;11.90;99.90;;;;;;4992029;28;20014;-79
2023/07/13 02:31:57;;;;;;;7.47;2.85;;;11.90;99.90;;;;;;4980673;22;20101;-86
2023/07/13 02:34:22;;;;;;;5.25;2.88;;;11.90;99.90;;;;;;4937229;29;20066;-86
2023/07/13 02:36:48;;;;;;;9.70;2.28;;;11.80;99.90;;;;;;4943356;28;20063;-86
2023/07/13 02:39:14;;;;;;;12.95;3.35;;;11.80;99.90;;;;;;4933914;29;20038;-86
2023/07/13 02:41:40;;;;;;;14.60;3.33;;;11.70;99.90;;;;;;4918573;29;20503;-87
2023/07/13 02:44:07;;;;;;;9.48;3.53;;;11.80;99.90;;;;;;4918363;29;20771;-88
2023/07/13 02:46:35;;;;;;;12.70;3.78;;;11.80;99.90;;;;;;4918016;29;20055;-86
2023/07/13 02:49:01;;;;;;;14.75;3.70;;;11.70;99.90;;;;;;4934719;29;20496;-86
2023/07/13 02:51:27;;;;;;;11.48;3.80;;;11.60;99.90;;;;;;4917913;29;20118;-85
2023/07/13 02:53:53;;;;;;;11.20;3.20;;;11.60;99.90;;;;;;4918561;29;20051;-86
2023/07/13 02:56:27;;;;;;;8.30;3.10;;;11.60;99.90;;;;;;4918156;29;20027;-85
2023/07/13 02:58:54;;;;;;;13.50;3.55;;;11.60;99.90;;;;;;4917779;29;20027;-85
2023/07/13 03:01:20;;;;;;;11.88;3.35;;;11.60;99.90;;;;;;4935214;29;20539;-86
2023/07/13 03:03:46;;;;;;;14.00;3.65;;;11.50;99.90;;;;;;4935878;29;20031;-86
2023/07/13 03:06:13;;;;;;;12.88;3.75;;;11.50;99.90;;;;;;4918417;29;20036;-86
2023/07/13 03:08:40;;;;;;;11.50;2.80;;;11.50;99.90;;;;;;4918236;29;20024;-86
2023/07/13 03:11:17;;;;;;;11.07;3.28;;;11.40;99.90;;;;;;4917915;29;20051;-86
2023/07/13 03:13:43;;;;;;;10.32;3.00;;;11.40;99.90;;;;;;4918045;29;20058;-86
2023/07/13 03:16:10;;;;;;;8.57;2.88;;;11.40;99.90;;;;;;4923294;29;20391;-86
2023/07/13 03:18:36;;;;;;;10.85;3.05;;;11.40;99.90;;;;;;4919547;29;20030;-87
2023/07/13 03:21:02;;;;;;;9.35;2.95;;;11.30;99.90;;;;;;4918007;29;20043;-86
2023/07/13 03:23:27;;;;;;;8.13;3.15;;;11.30;99.90;;;;;;4934004;29;20481;-87
2023/07/13 03:26:07;;;;;;;9.55;3.78;;;11.40;99.90;;;;;;4917579;29;20027;-86
2023/07/13 03:28:33;;;;;;;6.32;2.83;;;11.40;99.90;;;;;;4917928;29;20068;-86
2023/07/13 03:31:00;;;;;;;14.13;3.97;;;11.30;99.90;;;;;;4974470;23;20038;-77
2023/07/13 03:33:26;;;;;;;10.18;3.70;;;11.40;99.90;;;;;;4989846;28;20034;-78
2023/07/13 03:35:52;;;;;;;8.15;3.33;;;11.40;99.90;;;;;;4991002;28;20025;-78
2023/07/13 03:38:17;;;;;;;10.35;3.53;;;11.40;99.90;;;;;;4990652;28;20031;-79
2023/07/13 03:40:43;;;;;;;10.05;3.15;;;11.40;99.90;;;;;;4990663;28;20434;-78
2023/07/13 03:43:08;;;;;;;10.20;3.35;;;11.40;99.90;;;;;;4991152;28;20046;-78
2023/07/13 03:45:34;;;;;;;8.95;3.20;;;11.50;99.90;;;;;;4990459;28;20446;-78
2023/07/13 03:48:00;;;;;;;9.15;3.03;;;11.50;99.90;;;;;;4991300;28;20436;-78
2023/07/13 03:50:26;;;;;;;9.65;2.78;;;11.70;99.90;;;;;;4989527;28;20026;-79
2023/07/13 03:52:51;;;;;;;9.60;3.60;;;11.60;99.90;;;;;;4990247;28;20026;-78
2023/07/13 03:55:17;;;;;;;9.18;3.03;;;11.70;99.90;;;;;;4990570;28;20603;-78
2023/07/13 03:57:43;;;;;;;8.88;3.25;;;11.80;99.90;;;;;;4990289;28;20467;-78
2023/07/13 04:00:09;;;;;;;10.15;2.85;;;11.80;99.90;;;;;;4990236;28;20065;-79
2023/07/13 04:02:35;;;;;;;7.68;3.00;;;11.90;99.90;;;;;;4990444;28;20113;-76
2023/07/13 04:05:01;;;;;;;11.57;3.00;;;12.00;99.90;;;;;;4990559;28;20138;-77
2023/07/13 04:07:27;;;;;;;9.80;3.10;;;12.00;99.90;;;;;;4990212;28;20117;-77
2023/07/13 04:09:52;;;;;;;9.57;3.40;;;12.10;99.90;;;;;;4990508;28;20098;-79
2023/07/13 04:12:18;;;;;;;6.35;3.08;;;12.10;99.90;;;;;;4990092;28;20065;-76
2023/07/13 04:14:44;;;;;;;6.25;3.08;;;12.20;99.90;;;;;;4990147;28;20494;-76
2023/07/13 04:17:09;;;;;;;9.07;3.30;;;12.30;99.90;;;;;;4990721;28;20441;-79
2023/07/13 04:19:35;;;;;;;8.82;2.70;;;12.50;99.90;;;;;;4990490;28;20018;-79
2023/07/13 04:22:01;;;;;;;10.07;3.15;;;12.50;99.90;;;;;;4990640;28;20022;-78
2023/07/13 04:24:26;;;;;;;7.05;2.92;;;12.60;99.90;;;;;;4989707;28;20018;-79
2023/07/13 04:26:52;;;;;;;6.85;3.20;;;12.70;99.90;;;;;;4991562;28;20025;-79
2023/07/13 04:29:18;;;;;;;12.70;3.80;;;12.70;99.90;;;;;;4986420;28;20112;-80
2023/07/13 04:31:43;;;;;;;12.82;3.50;;;12.90;99.90;;;;;;4989620;23;20055;-88
2023/07/13 04:34:09;;;;;;;8.70;3.60;;;12.90;99.90;;;;;;4958604;28;20062;-87
2023/07/13 04:36:37;;;;;;;11.05;3.53;;;13.00;99.90;;;;;;4958319;28;20117;-88
2023/07/13 04:39:03;;;;;;;7.25;3.63;;;13.10;99.90;;;;;;4957792;28;20113;-87
2023/07/13 04:41:28;;;;;;;8.35;3.53;;;13.10;99.90;;;;;;4958345;28;20099;-87
2023/07/13 04:43:54;;;;;;;8.77;3.78;;;13.10;99.90;;;;;;4957849;28;20533;-86
2023/07/13 04:46:20;;;;;;;9.15;3.33;;;13.20;99.90;;;;;;4957343;28;20444;-87
2023/07/13 04:48:46;;;;;;;9.55;3.65;;;13.20;99.90;;;;;;4957962;28;20106;-87
2023/07/13 04:51:11;;;;;;;7.72;3.42;;;13.20;99.90;;;;;;4957641;28;20581;-88
2023/07/13 04:53:37;;;;;;;10.32;4.03;;;13.10;99.90;;;;;;4957536;28;20062;-87
2023/07/13 04:56:03;;;;;;;17.48;4.55;;;13.10;99.90;;;;;;4974854;28;20106;-87
2023/07/13 04:58:30;;;;;;;6.80;3.33;;;13.20;99.90;;;;;;4957543;28;20046;-87
2023/07/13 05:01:05;;;;;;;8.60;3.00;;;13.20;99.90;;;;;;4957209;28;20561;-88
2023/07/13 05:03:31;;;;;;;8.35;3.08;;;13.20;99.90;;;;;;4958097;28;20050;-86
2023/07/13 05:05:59;;;;;;;12.38;3.60;;;13.20;99.90;;;;;;4957583;28;20051;-87
2023/07/13 05:08:25;;;;;;;7.40;3.03;;;13.20;99.90;;;;;;4956957;28;20069;-87
2023/07/13 05:10:52;;;;;;;6.90;2.63;;;13.20;99.90;;;;;;4957254;28;20050;-86
2023/07/13 05:13:18;;;;;;;14.38;3.85;;;13.30;99.90;;;;;;4956889;28;20030;-87
2023/07/13 05:15:44;;;;;;;8.25;2.90;;;13.30;99.90;;;;;;4974446;28;20066;-89
2023/07/13 05:18:10;;;;;;;10.82;2.65;;;13.30;99.90;;;;;;4957144;28;20085;-87
2023/07/13 05:20:35;;;;;;;7.13;2.40;;;13.40;99.90;;;;;;4957374;28;20070;-86
2023/07/13 05:23:01;;;;;;;9.25;3.00;;;13.50;99.90;;;;;;4956797;28;20034;-87
2023/07/13 05:25:27;;;;;;;8.10;3.58;;;13.60;99.90;;;;;;4957411;28;20078;-86
2023/07/13 05:27:52;;;;;;;6.93;2.72;;;13.70;99.90;;;;;;4974002;28;20031;-87
2023/07/13 05:30:18;;;;;;;8.70;3.03;;;13.80;99.90;;;;;;4970072;23;20027;-79
2023/07/13 05:32:44;;;;;;;10.25;3.00;;;13.90;99.90;;;;;;4972571;28;20442;-79
2023/07/13 05:35:09;;;;;;;9.90;2.50;;;14.00;99.90;;;;;;4956379;28;20088;-80
2023/07/13 05:37:37;;;;;;;9.77;3.20;;;14.10;99.90;;;;;;4971830;28;20126;-79
2023/07/13 05:40:03;;;;;;;5.82;3.00;;;14.30;99.90;;;;;;4973129;28;20023;-79
2023/07/13 05:42:31;;;;;;;12.82;2.63;;;14.30;99.90;;;;;;4973512;28;20021;-79
2023/07/13 05:44:57;;;;;;;5.70;2.55;;;14.50;99.90;;;;;;4973458;28;20011;-79
2023/07/13 05:47:22;;;;;;;6.57;2.58;;;14.50;99.90;;;;;;4972490;28;20023;-78
2023/07/13 05:49:48;;;;;;;6.88;2.92;;;14.60;99.90;;;;;;4973440;28;20372;-80
2023/07/13 05:52:13;;;;;;;9.93;3.20;;;14.70;99.90;;;;;;4973127;28;20622;-79
2023/07/13 05:54:39;;;;;;;8.98;2.58;;;14.90;99.90;;;;;;4972683;28;20031;-79
2023/07/13 05:57:05;;;;;;;5.75;2.47;;;15.00;99.90;;;;;;4972896;28;20054;-79
2023/07/13 05:59:31;;;;;;;9.82;2.67;;;15.20;99.90;;;;;;4972909;28;20022;-79
2023/07/13 06:01:56;;;;;;;9.55;2.78;;;15.20;99.90;;;;;;4972597;28;20019;-79
2023/07/13 06:04:22;;;;;;;6.90;2.60;;;15.30;99.90;;;;;;4972912;28;20387;-79
2023/07/13 06:06:48;;;;;;;6.75;2.38;;;15.40;99.90;;;;;;4972650;28;20468;-79
2023/07/13 06:09:13;;;;;;;8.63;2.28;;;15.50;99.90;;;;;;4972804;28;20018;-79
2023/07/13 06:11:39;;;;;;;4.10;2.00;;;15.70;99.90;;;;;;4973074;28;20035;-79
2023/07/13 06:14:05;;;;;;;11.57;2.40;;;15.80;99.90;;;;;;4955732;28;20027;-80
2023/07/13 06:16:30;;;;;;;7.35;2.10;;;15.90;99.40;;;;;;4972360;28;20043;-79
2023/07/13 06:18:56;;;;;;;7.57;2.22;;;16.10;98.80;;;;;;4972735;28;20027;-79
2023/07/13 06:21:23;;;;;;;11.68;2.80;;;16.20;98.80;;;;;;4976864;28;20034;-79
2023/07/13 06:23:51;;;;;;;6.93;1.95;;;16.30;98.30;;;;;;4971366;28;20376;-80
2023/07/13 06:26:18;;;;;;;10.23;2.03;;;16.60;97.30;;;;;;4972770;28;20478;-79
2023/07/13 06:28:44;;;;;;;7.15;1.70;;;16.70;97.30;;;;;;4972473;28;20534;-80
2023/07/13 06:31:11;;;;;;;5.50;1.80;;;16.90;96.20;;;;;;4985058;23;20145;-86
2023/07/13 06:33:38;;;;;;;7.38;1.80;;;17.10;95.90;;;;;;4971605;28;20677;-87
2023/07/13 06:36:05;;;;;;;7.00;1.95;;;17.20;95.90;;;;;;4972640;28;20085;-86
2023/07/13 06:38:30;;;;;;;7.25;2.28;;;17.30;94.60;;;;;;4972091;28;20026;-84
2023/07/13 06:40:56;;;;;;;4.40;1.88;;;17.30;94.60;;;;;;4972693;28;20463;-84
2023/07/13 06:43:22;;;;;;;4.85;1.80;;;17.30;94.60;;;;;;4972594;28;20471;-85
2023/07/13 06:45:49;;;;;;;5.60;1.73;;;17.20;94.60;;;;;;4971960;28;20029;-86
2023/07/13 06:48:16;;;;;;;6.15;1.52;;;17.30;94.40;;;;;;4972349;28;20015;-84
2023/07/13 06:50:43;;;;;;;5.93;1.70;;;17.30;94.60;;;;;;4972463;28;20443;-85
2023/07/13 06:53:09;;;;;;;8.43;2.13;;;17.30;94.70;;;;;;4971190;28;20488;-85
2023/07/13 06:55:35;;;;;;;6.55;1.85;;;17.40;94.40;;;;;;4972293;28;20078;-82
2023/07/13 06:58:00;;;;;;;6.63;2.25;;;17.60;93.40;;;;;;4954821;28;20499;-86
2023/07/13 07:00:26;;;;;;;6.15;1.75;;;17.80;94.00;;;;;;4971925;28;20022;-83
2023/07/13 07:02:52;;;;;;;3.38;1.75;;;17.90;92.50;;;;;;4971940;28;20037;-84
2023/07/13 07:05:21;;;;;;;6.35;1.77;;;18.10;91.80;;;;;;4972589;28;20038;-84
2023/07/13 07:07:51;;;;;;;7.43;1.73;;;18.20;92.60;;;;;;4972163;28;20137;-84
2023/07/13 07:10:18;;;;;;;4.88;1.90;;;18.40;91.30;;;;;;4972214;28;20487;-87
2023/07/13 07:12:44;;;;;;;7.55;2.15;;;18.50;90.90;;;;;;4972918;28;20498;-85
2023/07/13 07:15:10;;;;;;;6.65;1.95;;;18.60;90.60;;;;;;4972185;28;20113;-85
2023/07/13 07:17:36;;;;;;;4.18;1.73;;;18.60;90.00;;;;;;4971349;28;20395;-83
2023/07/13 07:20:03;;;;;;;5.20;1.77;;;18.80;90.30;;;;;;4954508;28;20022;-83
2023/07/13 07:22:30;;;;;;;3.92;1.67;;;18.90;89.50;;;;;;4971812;28;20029;-85
2023/07/13 07:24:56;;;;;;;6.90;1.63;;;19.00;90.40;;;;;;4972033;28;20018;-88
2023/07/13 07:27:21;;;;;;;6.18;1.70;;;19.00;89.60;;;;;;4971780;28;20275;-83
2023/07/13 07:29:47;;;;;;;12.80;2.30;;;19.00;87.60;;;;;;4976541;28;20026;-84
2023/07/13 07:32:13;;;;;;;4.65;1.85;;;19.10;88.10;;;;;;4998892;23;20081;-81
2023/07/13 07:34:38;;;;;;;4.07;1.90;;;19.00;88.60;;;;;;4988679;28;20161;-81
2023/07/13 07:37:04;;;;;;;5.20;1.67;;;19.10;89.40;;;;;;4986715;28;20414;-81
2023/07/13 07:39:30;;;;;;;4.97;1.77;;;19.30;90.10;;;;;;4979099;28;20410;-81
2023/07/13 07:41:56;;;;;;;5.72;1.65;;;19.20;87.70;;;;;;4970794;28;20054;-80
2023/07/13 07:44:22;;;;;;;4.88;1.90;;;19.30;88.80;;;;;;4987926;28;20027;-81
2023/07/13 07:46:48;;;;;;;9.30;2.53;;;19.30;88.50;;;;;;4988530;28;20090;-80
2023/07/13 07:49:14;;;;;;;4.50;1.77;;;19.50;88.90;;;;;;4989112;28;20022;-82
2023/07/13 07:51:39;;;;;;;5.35;1.80;;;19.50;86.40;;;;;;4972974;28;20129;-80
2023/07/13 07:54:05;;;;;;;8.30;1.67;;;19.40;86.00;;;;;;4990589;28;20037;-81
2023/07/13 07:56:32;;;;;;;7.00;1.80;;;19.60;85.60;;;;;;4983585;28;20058;-82
2023/07/13 07:58:58;;;;;;;4.80;1.73;;;19.60;84.70;;;;;;4990951;28;20046;-82
2023/07/13 08:01:23;;;;;;;5.72;2.20;;;19.70;84.50;;;;;;4980018;28;20471;-80
2023/07/13 08:03:49;;;;;;;4.50;1.88;;;19.90;85.10;;;;;;4994338;28;20037;-79
2023/07/13 08:06:15;;;;;;;3.92;1.40;;;20.00;84.80;;;;;;4994540;28;20153;-82
2023/07/13 08:08:41;;;;;;;5.20;1.90;;;19.90;85.40;;;;;;4977422;28;20469;-82
2023/07/13 08:11:08;;;;;;;6.30;1.60;;;19.90;86.30;;;;;;4976753;28;20130;-80
2023/07/13 08:13:34;;;;;;;6.10;1.92;;;19.80;86.20;;;;;;4994110;28;20368;-81
2023/07/13 08:16:00;;;;;;;7.35;1.85;;;19.60;86.20;;;;;;4993398;28;20014;-82
2023/07/13 08:18:27;;;;;;;6.13;2.03;;;19.60;86.50;;;;;;4993619;28;20030;-82
2023/07/13 08:20:55;;;;;;;9.40;2.20;;;19.50;87.40;;;;;;4993434;28;20025;-82
2023/07/13 08:23:21;;;;;;;6.47;2.42;;;19.40;87.30;;;;;;4994410;28;20360;-82
2023/07/13 08:25:54;;;;;;;8.48;2.42;;;19.40;88.50;;;;;;4993667;28;20463;-80
2023/07/13 08:28:21;;;;;;;8.48;1.83;;;19.40;88.90;;;;;;4994135;28;20025;-80
2023/07/13 08:30:49;;;;;;;9.35;2.38;;;19.40;89.70;;;;;;4990492;23;20046;-82
2023/07/13 08:33:26;;;;;;;7.50;2.17;;;19.30;90.00;;;;;;4992556;28;20129;-83
2023/07/13 08:35:52;;;;;;;8.05;2.17;;;19.30;89.30;;;;;;4992109;28;20023;-81
2023/07/13 08:38:18;;;;;;;6.95;1.63;;;19.20;90.00;;;;;;4994090;28;20030;-80
2023/07/13 08:40:53;;;;;;;7.30;1.80;;;19.20;89.30;;;;;;4993675;28;20471;-82
2023/07/13 08:43:33;;;;;;;6.35;1.95;;;19.20;88.70;;;;;;4994030;28;20576;-81
2023/07/13 08:46:25;;;;;;;6.30;2.45;;;19.30;87.90;;;;;;4993347;28;20014;-83
2023/07/13 08:48:54;;;;;;;12.23;2.55;;;19.30;87.90;;;;;;4993547;28;20018;-82
2023/07/13 08:51:33;;;;;;;7.22;1.70;;;19.50;89.20;;;;;;4993055;28;20034;-81
2023/07/13 08:54:02;;;;;;;7.88;1.83;;;19.60;87.50;;;;;;4993335;28;20553;-82
2023/07/13 08:56:30;;;;;;;8.77;2.45;;;19.60;88.90;;;;;;4993043;28;20030;-81
2023/07/13 08:59:06;;;;;;;8.07;2.08;;;19.70;88.90;;;;;;4991539;28;20026;-81
2023/07/13 09:01:49;;;;;;;5.43;1.88;;;19.80;89.20;;;;;;4991845;28;20651;-81
2023/07/13 09:04:18;;;;;;;6.78;1.85;;;19.90;87.90;;;;;;4987937;28;20069;-84
2023/07/13 09:07:04;;;;;;;10.00;2.13;;;20.10;87.00;;;;;;4989773;28;20050;-81
2023/07/13 09:09:41;;;;;;;11.82;1.75;;;20.30;86.10;;;;;;4993086;28;20033;-81
2023/07/13 09:12:14;;;;;;;4.32;1.90;;;20.40;85.70;;;;;;4992265;28;20037;-81
2023/07/13 09:14:59;;;;;;;7.32;1.58;;;20.60;84.50;;;;;;4992080;28;20077;-86
2023/07/13 09:17:28;;;;;;;9.88;1.90;;;20.70;84.40;;;;;;4993063;28;20022;-85
2023/07/13 09:20:03;;;;;;;6.32;1.65;;;21.00;83.10;;;;;;4985037;28;20026;-84
2023/07/13 09:22:34;;;;;;;5.47;1.40;;;21.70;81.00;;;;;;4991024;28;20058;-82
2023/07/13 09:25:18;;;;;;;7.50;2.15;;;22.20;78.90;;;;;;4990678;28;20019;-81
2023/07/13 09:27:45;;;;;;;8.00;1.77;;;22.50;75.90;;;;;;4989758;28;20690;-81
2023/07/13 09:32:51;;;;;;;4.40;2.00;;;22.20;72.60;;;;;;4972459;28;20049;-83
2023/07/13 09:35:22;;;;;;;6.05;1.75;;;22.30;73.80;;;;;;4955191;28;20058;-81
2023/07/13 09:37:49;;;;;;;7.37;2.30;;;22.60;72.30;;;;;;4973351;28;20030;-80
2023/07/13 09:40:25;;;;;;;2.35;1.10;;;23.00;68.90;;;;;;4973420;28;20030;-84
2023/07/13 09:42:53;;;;;;;3.92;1.35;;;23.10;68.00;;;;;;4973549;28;20019;-80
2023/07/13 09:45:30;;;;;;;3.35;1.20;;;22.80;68.70;;;;;;4972929;28;20109;-82
2023/07/13 09:48:13;;;;;;;6.80;1.17;;;22.80;67.60;;;;;;4956248;28;20023;-83
2023/07/13 09:50:39;;;;;;;6.78;1.20;;;22.60;66.70;;;;;;4973514;28;20022;-81
2023/07/13 09:53:12;;;;;;;2.00;0.95;;;22.70;66.80;;;;;;4972907;28;20035;-83
2023/07/13 09:55:39;;;;;;;2.65;0.80;;;23.20;65.60;;;;;;4950937;28;20031;-83
2023/07/13 09:58:14;;;;;;;5.25;1.00;;;24.00;65.10;;;;;;4973600;28;20030;-82
2023/07/13 10:00:43;;;;;;;5.80;1.27;;;24.30;63.00;;;;;;4955789;28;20026;-81
2023/07/13 10:03:24;;;;;;;7.05;1.80;;;24.40;62.90;;;;;;4955890;28;20418;-82
2023/07/13 10:05:52;;;;;;;4.47;1.25;;;24.90;61.80;;;;;;4955590;28;20034;-85
2023/07/13 10:08:19;;;;;;;4.63;1.13;;;24.90;61.00;;;;;;4955572;28;20034;-82
2023/07/13 10:10:45;;;;;;;5.18;1.10;;;24.90;60.50;;;;;;4972322;28;20494;-81
2023/07/13 10:13:34;;;;;;;6.68;1.25;;;24.90;60.40;;;;;;4955436;28;20132;-84
2023/07/13 10:16:00;;;;;;;5.82;1.70;;;24.60;61.70;;;;;;4978708;28;20080;-81
2023/07/13 10:18:26;;;;;;;6.28;1.52;;;24.50;62.70;;;;;;4978752;28;20046;-86
2023/07/13 10:21:10;;;;;;;4.40;1.08;;;24.90;61.70;;;;;;4975149;28;20365;-81
2023/07/13 10:23:36;;;;;;;6.53;1.10;;;25.30;59.20;;;;;;4955153;28;20019;-81
2023/07/13 10:26:01;;;;;;;4.13;1.20;;;26.00;58.30;;;;;;4955824;28;20503;-80
2023/07/13 10:28:34;;;;;;;5.80;1.08;;;26.40;59.70;;;;;;4955410;28;20610;-87
2023/07/13 10:31:01;;;;;;;3.92;1.10;;;26.90;55.60;;;;;;4972668;23;20039;-82
2023/07/13 10:33:27;;;;;;;4.97;1.17;;;26.80;56.50;;;;;;4991788;28;20026;-82
2023/07/13 10:36:29;;;;;;;12.57;1.30;;;26.10;54.80;;;;;;4994354;28;20582;-80
2023/07/13 10:38:57;;;;;;;7.20;1.20;;;26.20;57.00;;;;;;4977271;28;20045;-79
2023/07/13 10:41:25;;;;;;;5.85;0.82;;;26.20;57.40;;;;;;4991673;28;20030;-82
2023/07/13 10:43:54;;;;;;;2.65;0.85;;;26.00;55.40;;;;;;4992065;28;20069;-82
2023/07/13 10:46:23;;;;;;;7.22;1.45;;;25.40;57.00;;;;;;4991565;28;20030;-84
2023/07/13 10:48:54;;;;;;;7.25;1.55;;;25.00;59.10;;;;;;4991364;28;20065;-82
2023/07/13 10:51:21;;;;;;;5.57;1.20;;;25.30;62.60;;;;;;4991172;28;20030;-81
2023/07/13 10:53:47;;;;;;;5.85;1.80;;;26.40;57.40;;;;;;4991768;28;20097;-84
2023/07/13 10:56:33;;;;;;;8.60;1.20;;;26.40;59.00;;;;;;4991343;28;20105;-82
2023/07/13 10:59:17;;;;;;;8.90;1.58;;;27.00;56.20;;;;;;4993149;28;20489;-81
2023/07/13 11:01:51;;;;;;;7.25;1.17;;;27.20;54.20;;;;;;4984846;28;20038;-81
2023/07/13 11:04:20;;;;;;;7.35;1.45;;;27.70;55.20;;;;;;4991184;28;20493;-80
2023/07/13 11:06:49;;;;;;;6.13;1.50;;;27.80;53.90;;;;;;4990403;28;20176;-81
2023/07/13 11:09:40;;;;;;;2.63;0.85;;;27.70;53.10;;;;;;4991077;28;20042;-82
2023/07/13 11:12:17;;;;;;;7.43;1.83;;;27.90;52.10;;;;;;4991141;28;20018;-81
2023/07/13 11:14:55;;;;;;;5.88;1.60;;;28.10;49.70;;;;;;4991376;28;20030;-84
2023/07/13 11:17:32;;;;;;;9.63;4.50;;;28.70;49.30;;;;;;4987903;28;20050;-84
2023/07/13 11:20:13;;;;;;;9.48;3.00;;;29.20;48.20;;;;;;4991693;28;20018;-84
2023/07/13 11:22:52;;;;;;;8.63;2.03;;;30.10;47.90;;;;;;4998997;28;20031;-81
2023/07/13 11:25:32;;;;;;;7.80;1.90;;;29.70;46.40;;;;;;5002841;28;20027;-83
2023/07/13 11:28:15;;;;;;;12.48;3.78;;;29.90;47.00;;;;;;4993528;28;20025;-85
2023/07/13 11:30:55;;;;;;;9.07;2.50;;;30.00;45.90;;;;;;5005378;22;20062;-82
2023/07/13 11:33:52;;;;;;;8.52;1.77;;;30.10;48.70;;;;;;4971224;28;20035;-82
2023/07/13 11:36:22;;;;;;;8.70;2.20;;;29.80;46.20;;;;;;4969766;28;20376;-82
2023/07/13 11:38:50;;;;;;;5.07;1.45;;;29.80;45.50;;;;;;4958025;28;20463;-81
2023/07/13 11:41:24;;;;;;;5.38;1.52;;;29.50;45.80;;;;;;4974475;28;20038;-80
2023/07/13 11:43:53;;;;;;;8.20;2.08;;;29.40;46.80;;;;;;4957953;28;20015;-82
2023/07/13 11:46:25;;;;;;;6.50;1.90;;;29.20;47.30;;;;;;4960860;28;20390;-81
2023/07/13 11:48:51;;;;;;;10.30;2.60;;;28.50;47.00;;;;;;4977582;28;20031;-82
2023/07/13 11:51:35;;;;;;;14.30;2.80;;;27.50;50.30;;;;;;4977217;28;20383;-81
2023/07/13 11:54:04;;;;;;;10.45;2.97;;;26.10;52.40;;;;;;4975386;28;20038;-80
2023/07/13 11:56:32;;;;;;;11.43;2.97;;;25.30;55.00;;;;;;4970757;28;20031;-81
2023/07/13 11:59:03;;;;;;;13.77;3.13;;;24.70;58.30;;;;;;4981833;28;20022;-82
2023/07/13 12:01:32;;;;;;;10.18;3.05;;;24.90;59.50;;;;;;4965272;28;20057;-80
2023/07/13 12:04:03;;;;;;;9.82;2.53;;;24.70;58.60;;;;;;4978219;28;20023;-80
2023/07/13 12:06:40;;;;;;;8.13;2.70;;;24.30;59.80;;;;;;4975311;28;20046;-82
2023/07/13 12:09:15;;;;;;;12.15;3.72;;;24.00;60.00;;;;;;4968722;28;20031;-80
2023/07/13 12:11:43;;;;;;;11.23;2.80;;;24.90;61.00;;;;;;4951216;28;20106;-81
2023/07/13 12:14:19;;;;;;;7.00;2.45;;;25.00;57.40;;;;;;4974945;28;20085;-81
2023/07/13 12:16:46;;;;;;;10.82;2.90;;;25.30;56.70;;;;;;4974800;28;20031;-82
2023/07/13 12:19:21;;;;;;;6.18;2.00;;;25.50;57.50;;;;;;4975083;28;20019;-79
2023/07/13 12:21:48;;;;;;;6.72;2.00;;;25.10;54.50;;;;;;4967895;28;20098;-81
2023/07/13 12:24:20;;;;;;;5.32;1.98;;;25.20;54.90;;;;;;4957273;28;20383;-82
2023/07/13 12:27:14;;;;;;;8.38;2.38;;;26.10;53.70;;;;;;4974589;28;20031;-79
2023/07/13 12:29:39;;;;;;;4.60;1.73;;;25.70;55.80;;;;;;4949568;28;20085;-81
2023/07/13 12:32:09;;;;;;;6.07;2.20;;;26.40;54.50;;;;;;4971487;23;20590;-85
2023/07/13 12:34:52;;;;;;;5.00;1.65;;;27.70;52.30;;;;;;4957325;28;20019;-81
2023/07/13 12:37:17;;;;;;;11.10;2.60;;;28.70;52.10;;;;;;4974747;28;20019;-84
2023/07/13 12:39:48;;;;;;;7.00;1.65;;;29.20;49.80;;;;;;4974378;28;20462;-81
2023/07/13 12:42:24;;;;;;;7.32;1.70;;;28.50;48.40;;;;;;4974074;28;20031;-81
2023/07/13 12:44:50;;;;;;;4.97;2.00;;;28.00;50.90;;;;;;4957559;28;20102;-88
2023/07/13 12:47:16;;;;;;;5.72;1.90;;;28.00;51.20;;;;;;4973959;28;20106;-86
2023/07/13 12:49:50;;;;;;;11.75;2.05;;;28.20;49.70;;;;;;4962280;28;20407;-83
2023/07/13 12:52:22;;;;;;;6.15;1.58;;;29.20;49.00;;;;;;4974213;28;20039;-82
2023/07/13 12:54:59;;;;;;;7.28;1.55;;;28.90;46.90;;;;;;4973990;28;20038;-84